Time;durP1;ratioP1;P1;durP2;ratioP2;P2;SDS_P1;SDS_P2;PMS_P1;PMS_P2;Temp;Humidity;BMP_temperature;BMP_pressure;BME280_temperature;BME280_humidity;BME280_pressure;Samples;Min_cycle;Max_cycle;Signal;HPM_P1;HPM_P2
2021/12/15 00:02:19;;;;;;;6.63;5.03;;;8.80;99.90;;;;;;5079483;28;20457;-68
2021/12/15 00:04:47;;;;;;;6.60;4.83;;;8.80;99.90;;;;;;5079672;28;20543;-69
2021/12/15 00:07:14;;;;;;;8.87;6.73;;;8.80;99.90;;;;;;5080878;28;20578;-68
2021/12/15 00:09:41;;;;;;;4.20;3.80;;;8.80;99.90;;;;;;5081738;28;20462;-68
2021/12/15 00:12:09;;;;;;;8.00;5.20;;;8.80;99.90;;;;;;5079326;28;20759;-68
2021/12/15 00:14:37;;;;;;;5.17;4.13;;;8.80;99.90;;;;;;5084617;28;20895;-69
2021/12/15 00:17:04;;;;;;;4.70;4.17;;;8.80;99.90;;;;;;5080906;28;20449;-68
2021/12/15 00:19:31;;;;;;;6.70;5.40;;;8.80;99.90;;;;;;5075787;28;20472;-69
2021/12/15 00:21:58;;;;;;;5.20;4.47;;;8.80;99.90;;;;;;5073608;28;20450;-69
2021/12/15 00:24:25;;;;;;;6.20;5.13;;;8.80;99.90;;;;;;5091585;28;20498;-70
2021/12/15 00:26:53;;;;;;;4.90;4.40;;;8.70;99.90;;;;;;5089498;28;20459;-70
2021/12/15 00:29:20;;;;;;;6.37;4.37;;;8.80;99.90;;;;;;5082461;28;20820;-69
2021/12/15 00:31:48;;;;;;;7.60;4.53;;;8.80;99.90;;;;;;5080883;28;20456;-68
2021/12/15 00:34:16;;;;;;;6.30;4.90;;;8.80;99.90;;;;;;5075555;28;20464;-69
2021/12/15 00:36:44;;;;;;;5.63;4.67;;;8.80;99.90;;;;;;5081227;28;20490;-68
2021/12/15 00:39:14;;;;;;;5.57;4.10;;;8.80;99.90;;;;;;5081392;28;20799;-69
2021/12/15 00:41:41;;;;;;;7.23;4.87;;;8.80;99.90;;;;;;5075777;28;20542;-68
2021/12/15 00:44:09;;;;;;;7.47;5.23;;;8.80;99.90;;;;;;5071621;28;20508;-70
2021/12/15 00:46:36;;;;;;;5.93;5.33;;;8.80;99.90;;;;;;5086327;28;20468;-69
2021/12/15 00:49:05;;;;;;;6.13;4.43;;;8.80;99.90;;;;;;5071192;28;20814;-69
2021/12/15 00:51:32;;;;;;;10.20;6.53;;;8.80;99.90;;;;;;5079897;28;20454;-69
2021/12/15 00:53:59;;;;;;;4.83;4.37;;;8.80;99.90;;;;;;5080621;28;20566;-70
2021/12/15 00:56:26;;;;;;;6.30;4.20;;;8.80;99.90;;;;;;5076393;28;20491;-68
2021/12/15 00:58:53;;;;;;;6.97;4.73;;;8.80;99.90;;;;;;5078469;28;20472;-68
2021/12/15 01:01:19;;;;;;;4.20;3.80;;;8.80;99.90;;;;;;5080560;28;20473;-68
2021/12/15 01:03:46;;;;;;;6.73;4.47;;;8.80;99.90;;;;;;5082363;28;20464;-69
2021/12/15 01:06:17;;;;;;;4.20;3.80;;;8.80;99.90;;;;;;5075883;28;20456;-69
2021/12/15 01:08:51;;;;;;;6.20;5.40;;;8.80;99.90;;;;;;5085065;28;20452;-69
2021/12/15 01:11:27;;;;;;;6.07;4.60;;;8.80;99.90;;;;;;5085854;28;20573;-68
2021/12/15 01:19:50;;;;;;;9.27;5.50;;;8.80;99.90;;;;;;5078007;28;20588;-68
2021/12/15 01:22:23;;;;;;;5.77;4.20;;;8.90;99.90;;;;;;5076471;28;20474;-69
2021/12/15 01:24:50;;;;;;;7.53;5.73;;;8.90;99.90;;;;;;5086611;28;20463;-69
2021/12/15 01:27:17;;;;;;;5.67;4.47;;;8.90;99.90;;;;;;5077281;28;21085;-68
2021/12/15 01:29:44;;;;;;;7.23;5.60;;;8.90;99.90;;;;;;5084609;28;20467;-69
2021/12/15 01:32:11;;;;;;;4.10;3.77;;;8.90;99.90;;;;;;5098695;28;20513;-69
2021/12/15 01:34:38;;;;;;;4.93;3.97;;;8.90;99.90;;;;;;5085709;28;20470;-68
2021/12/15 01:37:05;;;;;;;2.63;2.43;;;8.90;99.90;;;;;;5080287;28;20893;-69
2021/12/15 01:39:33;;;;;;;3.67;3.33;;;8.90;99.90;;;;;;5066063;28;20456;-68
2021/12/15 01:42:00;;;;;;;3.90;3.40;;;9.00;99.90;;;;;;5067809;28;20466;-69
2021/12/15 01:47:12;;;;;;;2.30;1.73;;;9.20;99.90;;;;;;5075811;28;20502;-68
2021/12/15 01:49:41;;;;;;;2.53;2.03;;;9.20;99.90;;;;;;5074979;28;20456;-69
2021/12/15 01:52:12;;;;;;;6.40;2.07;;;9.30;99.90;;;;;;5066475;28;20533;-69
2021/12/15 01:54:43;;;;;;;2.63;2.10;;;9.40;99.90;;;;;;5078022;28;20454;-70
2021/12/15 01:57:11;;;;;;;3.13;1.80;;;9.40;99.90;;;;;;5077127;28;20455;-69
2021/12/15 01:59:40;;;;;;;2.70;2.30;;;9.50;99.90;;;;;;5078834;28;20480;-69
2021/12/15 02:02:07;;;;;;;3.60;2.63;;;9.60;99.90;;;;;;5079468;28;20535;-69
2021/12/15 02:04:34;;;;;;;3.63;2.50;;;9.60;99.90;;;;;;5081896;28;20467;-69
2021/12/15 02:07:03;;;;;;;2.70;1.80;;;9.60;99.90;;;;;;5072270;28;20437;-69
2021/12/15 02:12:15;;;;;;;1.60;1.50;;;9.50;99.90;;;;;;5072375;28;20527;-69
2021/12/15 02:14:42;;;;;;;2.13;1.77;;;9.50;99.90;;;;;;5071709;28;20475;-69
2021/12/15 02:17:09;;;;;;;3.07;1.73;;;9.50;99.90;;;;;;5073463;28;20486;-68
2021/12/15 02:19:36;;;;;;;1.97;1.77;;;9.50;99.90;;;;;;5066517;28;20480;-68
2021/12/15 02:22:04;;;;;;;2.23;1.93;;;9.60;99.90;;;;;;5067273;28;20458;-69
2021/12/15 02:24:33;;;;;;;1.57;1.47;;;9.50;99.90;;;;;;5072283;28;20476;-69
2021/12/15 02:27:01;;;;;;;2.00;1.50;;;9.60;99.90;;;;;;5082624;28;20468;-69
2021/12/15 02:29:32;;;;;;;1.53;1.10;;;9.60;99.90;;;;;;5078352;28;20942;-69
2021/12/15 02:32:10;;;;;;;1.40;1.30;;;9.50;99.90;;;;;;5081985;28;20936;-69
2021/12/15 02:37:02;;;;;;;1.63;1.53;;;9.50;99.90;;;;;;5082193;28;20507;-69
2021/12/15 02:37:43;;;;;;;1.70;1.30;;;9.60;99.90;;;;;;5080408;28;20515;-69
2021/12/15 02:40:16;;;;;;;2.47;1.90;;;9.60;99.90;;;;;;5081197;28;20536;-69
2021/12/15 02:42:45;;;;;;;1.60;1.50;;;9.60;99.90;;;;;;5072778;28;20933;-69
2021/12/15 02:45:16;;;;;;;1.57;1.47;;;9.60;99.90;;;;;;5072083;28;20449;-69
2021/12/15 02:47:43;;;;;;;1.60;1.00;;;9.60;99.90;;;;;;5071592;28;20448;-68
2021/12/15 02:50:12;;;;;;;3.17;1.97;;;9.50;99.90;;;;;;5070476;28;20451;-69
2021/12/15 02:52:40;;;;;;;1.10;1.00;;;9.50;99.90;;;;;;5082284;28;20498;-69
2021/12/15 02:55:10;;;;;;;2.57;1.73;;;9.60;99.90;;;;;;5080333;28;20481;-69
2021/12/15 02:57:37;;;;;;;1.40;1.30;;;9.50;99.90;;;;;;5083836;28;20462;-68
2021/12/15 03:00:16;;;;;;;1.13;1.03;;;9.50;99.90;;;;;;5088486;28;20557;-68
2021/12/15 03:03:14;;;;;;;1.67;1.43;;;9.60;99.90;;;;;;5079411;28;20472;-68
2021/12/15 03:05:45;;;;;;;1.20;0.93;;;9.50;99.90;;;;;;5078567;28;20530;-68
2021/12/15 03:08:15;;;;;;;0.97;0.87;;;9.50;99.90;;;;;;5088238;28;20512;-68
2021/12/15 03:16:16;;;;;;;1.40;0.77;;;9.50;99.90;;;;;;5072010;28;20511;-69
2021/12/15 03:18:43;;;;;;;1.10;1.03;;;9.50;99.90;;;;;;5078344;28;20457;-68
2021/12/15 03:21:15;;;;;;;2.67;1.30;;;9.50;99.90;;;;;;5086553;28;20421;-69
2021/12/15 03:23:50;;;;;;;1.67;1.37;;;9.50;99.90;;;;;;5087592;28;20534;-68
2021/12/15 03:26:23;;;;;;;1.70;1.43;;;9.50;99.90;;;;;;5070307;28;20456;-68
2021/12/15 03:34:44;;;;;;;1.47;0.90;;;9.50;99.90;;;;;;5091716;28;20522;-69
2021/12/15 03:37:23;;;;;;;1.10;0.87;;;9.60;99.90;;;;;;5083372;28;20541;-68
2021/12/15 03:39:53;;;;;;;1.10;0.97;;;9.60;99.90;;;;;;5080022;28;20484;-68
2021/12/15 03:42:27;;;;;;;1.37;1.23;;;9.60;99.90;;;;;;5069040;28;20452;-68
2021/12/15 03:44:54;;;;;;;1.43;1.03;;;9.60;99.90;;;;;;5075199;28;20533;-68
2021/12/15 03:47:24;;;;;;;2.53;1.57;;;9.70;99.90;;;;;;5081845;28;20956;-68
2021/12/15 03:49:52;;;;;;;1.70;1.60;;;9.60;99.90;;;;;;5087689;28;20464;-69
2021/12/15 03:52:20;;;;;;;1.70;1.50;;;9.70;99.90;;;;;;5082726;28;20834;-67
2021/12/15 03:54:47;;;;;;;2.60;0.87;;;9.70;99.90;;;;;;5068542;28;20530;-68
2021/12/15 03:57:14;;;;;;;1.47;1.10;;;9.70;99.90;;;;;;5068280;28;20825;-68
2021/12/15 03:59:44;;;;;;;2.60;1.60;;;9.60;99.90;;;;;;5076623;28;20538;-67
2021/12/15 04:02:13;;;;;;;3.13;1.07;;;9.40;99.90;;;;;;5079682;28;20508;-68
2021/12/15 04:04:40;;;;;;;1.17;0.83;;;9.30;99.90;;;;;;5073421;28;20799;-68
2021/12/15 04:07:08;;;;;;;1.17;1.07;;;9.10;99.90;;;;;;5077739;28;20442;-68
2021/12/15 04:09:36;;;;;;;3.63;1.80;;;9.00;99.90;;;;;;5079014;28;20794;-68
2021/12/15 04:12:03;;;;;;;1.10;1.00;;;8.90;99.90;;;;;;5072262;28;20471;-68
2021/12/15 04:14:41;;;;;;;1.97;1.40;;;8.90;99.90;;;;;;5079801;28;20482;-68
2021/12/15 04:17:26;;;;;;;2.73;1.03;;;8.90;99.90;;;;;;5081245;28;20579;-68
2021/12/15 04:19:54;;;;;;;1.33;1.20;;;9.00;99.90;;;;;;5077263;28;20914;-68
2021/12/15 04:22:21;;;;;;;1.20;1.10;;;9.00;99.90;;;;;;5074191;28;20460;-68
2021/12/15 04:24:48;;;;;;;2.70;1.40;;;9.00;99.90;;;;;;5068044;28;20459;-68
2021/12/15 04:27:15;;;;;;;1.40;1.30;;;9.00;99.90;;;;;;5078934;28;20448;-68
2021/12/15 04:29:44;;;;;;;1.17;1.07;;;9.10;99.90;;;;;;5078336;28;20463;-68
2021/12/15 04:32:21;;;;;;;2.83;1.80;;;9.10;99.90;;;;;;5079926;28;20482;-68
2021/12/15 04:34:48;;;;;;;2.00;1.40;;;9.10;99.90;;;;;;5068939;28;20540;-68
2021/12/15 04:37:15;;;;;;;2.10;1.40;;;9.10;99.90;;;;;;5078314;28;20502;-68
2021/12/15 04:39:42;;;;;;;1.23;1.13;;;9.10;99.90;;;;;;5076753;28;20615;-68
2021/12/15 04:42:11;;;;;;;1.43;1.00;;;9.00;99.90;;;;;;5082173;28;20458;-68
2021/12/15 04:44:39;;;;;;;1.90;1.80;;;9.00;99.90;;;;;;5088035;28;20548;-68
2021/12/15 04:47:10;;;;;;;1.67;1.57;;;9.00;99.90;;;;;;5086545;28;20456;-69
2021/12/15 04:49:41;;;;;;;1.30;1.20;;;9.00;99.90;;;;;;5081082;28;20475;-69
2021/12/15 04:52:10;;;;;;;2.27;2.07;;;9.00;99.90;;;;;;5080011;28;20471;-68
2021/12/15 04:54:37;;;;;;;1.60;1.50;;;9.00;99.90;;;;;;5078561;28;20474;-69
2021/12/15 04:57:05;;;;;;;3.70;1.57;;;9.00;99.90;;;;;;5071259;28;20483;-68
2021/12/15 04:59:32;;;;;;;1.33;1.23;;;9.10;99.90;;;;;;5071819;28;20540;-68
2021/12/15 05:02:00;;;;;;;2.10;1.30;;;9.10;99.90;;;;;;5071647;28;20607;-68
2021/12/15 05:04:27;;;;;;;2.30;1.80;;;9.10;99.90;;;;;;5071836;28;21130;-70
2021/12/15 05:06:55;;;;;;;1.60;1.13;;;9.10;99.90;;;;;;5071002;28;20492;-70
2021/12/15 05:09:22;;;;;;;1.37;1.27;;;9.20;99.90;;;;;;5085186;28;20449;-70
2021/12/15 05:11:50;;;;;;;2.03;1.60;;;9.10;99.90;;;;;;5077476;28;20455;-70
2021/12/15 05:14:18;;;;;;;4.33;1.97;;;9.10;99.90;;;;;;5081259;28;20482;-69
2021/12/15 05:16:45;;;;;;;3.83;1.80;;;9.10;99.90;;;;;;5078646;28;20486;-70
2021/12/15 05:19:12;;;;;;;2.90;1.70;;;9.00;99.90;;;;;;5078148;28;20454;-70
2021/12/15 05:21:39;;;;;;;1.87;1.67;;;9.00;99.90;;;;;;5073173;28;20453;-69
2021/12/15 05:24:14;;;;;;;1.83;1.30;;;9.00;99.90;;;;;;5074923;28;20542;-68
2021/12/15 05:26:42;;;;;;;1.40;1.30;;;9.00;99.90;;;;;;5074338;28;20447;-68
2021/12/15 05:29:09;;;;;;;1.83;1.70;;;9.00;99.90;;;;;;5075559;28;20455;-68
2021/12/15 05:31:35;;;;;;;1.70;1.20;;;9.00;99.90;;;;;;5074201;28;20493;-68
2021/12/15 05:34:03;;;;;;;1.53;1.43;;;9.00;99.90;;;;;;5068163;28;20471;-68
2021/12/15 05:36:30;;;;;;;1.53;1.33;;;9.10;99.90;;;;;;5082306;28;20506;-68
2021/12/15 05:38:57;;;;;;;1.57;1.47;;;9.00;99.90;;;;;;5075323;28;20463;-68
2021/12/15 05:41:26;;;;;;;2.40;1.83;;;9.10;99.90;;;;;;5068689;28;20500;-67
2021/12/15 05:43:53;;;;;;;2.53;1.60;;;9.10;99.90;;;;;;5075985;28;21125;-67
2021/12/15 05:46:20;;;;;;;1.70;1.60;;;9.10;99.90;;;;;;5090006;28;20439;-68
2021/12/15 05:48:47;;;;;;;3.10;1.77;;;9.10;99.90;;;;;;5083530;28;20463;-69
2021/12/15 05:51:14;;;;;;;1.90;1.70;;;9.10;99.90;;;;;;5078802;28;20457;-68
2021/12/15 05:53:40;;;;;;;2.23;1.93;;;9.20;99.90;;;;;;5071372;28;20500;-69
2021/12/15 05:56:07;;;;;;;1.70;1.57;;;9.20;99.90;;;;;;5068411;28;20453;-67
2021/12/15 05:58:37;;;;;;;3.00;1.70;;;9.20;99.90;;;;;;5069040;28;20447;-66
2021/12/15 06:01:05;;;;;;;1.53;1.43;;;9.20;99.90;;;;;;5073682;28;21225;-69
2021/12/15 06:03:32;;;;;;;4.07;1.20;;;9.30;99.90;;;;;;5082724;28;20480;-68
2021/12/15 06:05:59;;;;;;;1.47;1.23;;;9.20;99.90;;;;;;5083672;28;20916;-68
2021/12/15 06:08:26;;;;;;;2.03;1.87;;;9.30;99.90;;;;;;5073485;28;20470;-67
2021/12/15 06:10:53;;;;;;;2.30;1.63;;;9.30;99.90;;;;;;5086003;28;20450;-70
2021/12/15 06:13:22;;;;;;;2.30;1.87;;;9.30;99.90;;;;;;5075600;28;20482;-69
2021/12/15 06:15:51;;;;;;;2.20;2.00;;;9.20;99.90;;;;;;5078469;28;20636;-68
2021/12/15 06:18:20;;;;;;;2.27;2.07;;;9.10;99.90;;;;;;5070250;28;20481;-70
2021/12/15 06:20:49;;;;;;;2.30;2.00;;;9.00;99.90;;;;;;5080006;28;20764;-70
2021/12/15 06:23:18;;;;;;;5.37;2.63;;;8.90;99.90;;;;;;5075909;28;20490;-70
2021/12/15 06:25:47;;;;;;;2.60;2.40;;;8.90;99.90;;;;;;5073043;28;20451;-67
2021/12/15 06:28:14;;;;;;;3.07;2.10;;;8.80;99.90;;;;;;5069601;28;20444;-68
2021/12/15 06:30:42;;;;;;;4.03;1.97;;;8.80;99.90;;;;;;5067357;28;20527;-69
2021/12/15 06:33:11;;;;;;;2.40;1.73;;;8.70;99.90;;;;;;5081086;28;20453;-67
2021/12/15 06:35:40;;;;;;;1.60;1.50;;;8.70;99.90;;;;;;5069706;28;20456;-67
2021/12/15 06:38:07;;;;;;;1.50;1.33;;;8.70;99.90;;;;;;5079773;28;21021;-67
2021/12/15 06:40:35;;;;;;;1.23;1.13;;;8.70;99.90;;;;;;5085014;28;20448;-67
2021/12/15 06:43:02;;;;;;;1.53;1.43;;;8.70;99.90;;;;;;5083674;28;20469;-69
2021/12/15 06:45:35;;;;;;;1.53;1.23;;;8.70;99.90;;;;;;5081971;28;20459;-69
2021/12/15 06:58:59;;;;;;;1.43;1.03;;;8.70;99.90;;;;;;5083533;28;20469;-67
2021/12/15 07:01:26;;;;;;;1.27;1.17;;;8.80;99.90;;;;;;5071476;28;20953;-69
2021/12/15 07:03:53;;;;;;;1.30;1.20;;;8.80;99.90;;;;;;5069068;28;21048;-68
2021/12/15 07:06:21;;;;;;;1.90;1.80;;;8.80;99.90;;;;;;5072597;28;20471;-67
2021/12/15 07:08:48;;;;;;;0.83;0.60;;;8.80;99.90;;;;;;5072980;28;20448;-66
2021/12/15 07:11:14;;;;;;;1.53;0.87;;;8.90;99.90;;;;;;5080240;28;20456;-69
2021/12/15 07:13:41;;;;;;;1.30;1.20;;;8.80;99.90;;;;;;5066210;28;20481;-66
2021/12/15 07:16:09;;;;;;;1.47;1.20;;;8.80;99.90;;;;;;5066848;28;20769;-70
2021/12/15 07:18:43;;;;;;;0.80;0.70;;;8.90;99.90;;;;;;5079524;28;20559;-68
2021/12/15 07:21:16;;;;;;;1.40;1.03;;;8.90;99.90;;;;;;5076399;28;21006;-68
2021/12/15 07:23:45;;;;;;;1.23;1.00;;;8.90;99.90;;;;;;5086487;28;20472;-69
2021/12/15 07:26:13;;;;;;;1.50;0.73;;;8.90;99.90;;;;;;5076821;28;20471;-69
2021/12/15 07:28:40;;;;;;;3.00;2.10;;;9.00;99.90;;;;;;5077867;28;21011;-68
2021/12/15 07:31:08;;;;;;;1.90;0.97;;;9.00;99.90;;;;;;5081550;28;20987;-68
2021/12/15 07:33:35;;;;;;;1.80;1.13;;;9.00;99.90;;;;;;5081513;28;20479;-69
2021/12/15 07:36:02;;;;;;;1.60;1.50;;;9.00;99.90;;;;;;5075845;28;20447;-68
2021/12/15 07:38:29;;;;;;;1.37;1.27;;;9.00;99.90;;;;;;5073221;28;20485;-68
2021/12/15 07:40:57;;;;;;;1.20;1.10;;;9.00;99.90;;;;;;5082562;28;20464;-68
2021/12/15 07:43:27;;;;;;;1.60;1.43;;;9.10;99.90;;;;;;5079733;28;20475;-69
2021/12/15 07:46:00;;;;;;;1.30;1.20;;;9.10;99.90;;;;;;5072346;28;20452;-69
2021/12/15 07:48:29;;;;;;;1.57;1.27;;;9.10;99.90;;;;;;5074929;28;20462;-68
2021/12/15 07:50:58;;;;;;;1.63;1.53;;;9.20;99.90;;;;;;5072549;28;20450;-68
2021/12/15 07:53:26;;;;;;;1.50;1.23;;;9.20;99.90;;;;;;5077802;28;20462;-68
2021/12/15 07:55:53;;;;;;;1.33;1.23;;;9.10;99.90;;;;;;5083451;28;20452;-67
2021/12/15 07:58:23;;;;;;;2.20;1.83;;;9.10;99.90;;;;;;5077707;28;20484;-68
2021/12/15 08:00:52;;;;;;;1.90;1.40;;;9.20;99.90;;;;;;5081445;28;20555;-67
2021/12/15 08:03:19;;;;;;;1.70;1.50;;;9.10;99.90;;;;;;5082961;28;20471;-68
2021/12/15 08:05:49;;;;;;;1.73;1.07;;;9.10;99.90;;;;;;5069897;28;20443;-67
2021/12/15 08:08:16;;;;;;;2.03;1.57;;;9.10;99.90;;;;;;5089784;28;20495;-68
2021/12/15 08:10:45;;;;;;;1.60;1.17;;;9.10;99.90;;;;;;5081678;28;20451;-68
2021/12/15 08:13:12;;;;;;;1.47;1.37;;;9.10;99.90;;;;;;5081653;28;20570;-68
2021/12/15 08:15:40;;;;;;;1.93;1.73;;;9.10;99.90;;;;;;5079118;28;20455;-67
2021/12/15 08:18:08;;;;;;;1.40;1.20;;;9.20;99.90;;;;;;5089087;28;20475;-67
2021/12/15 08:20:36;;;;;;;1.50;1.40;;;9.20;99.90;;;;;;5083675;28;20973;-68
2021/12/15 08:23:04;;;;;;;1.20;0.97;;;9.20;99.90;;;;;;5083915;28;20826;-71
2021/12/15 08:25:31;;;;;;;2.03;1.87;;;9.20;99.90;;;;;;5080292;28;20463;-68
2021/12/15 08:27:58;;;;;;;2.53;1.90;;;9.30;99.90;;;;;;5078288;28;20453;-68
2021/12/15 08:30:28;;;;;;;1.37;1.20;;;9.30;99.90;;;;;;5078600;28;20543;-68
2021/12/15 08:32:58;;;;;;;3.90;2.00;;;9.30;99.90;;;;;;5084221;28;20479;-68
2021/12/15 08:35:28;;;;;;;2.30;1.20;;;9.30;99.90;;;;;;5086882;28;20481;-68
2021/12/15 08:37:55;;;;;;;1.97;1.17;;;9.30;99.90;;;;;;5074756;28;20484;-68
2021/12/15 08:40:25;;;;;;;1.60;1.03;;;9.30;99.90;;;;;;5075250;28;20454;-68
2021/12/15 08:42:52;;;;;;;3.87;1.53;;;9.20;99.90;;;;;;5080613;28;21007;-68
2021/12/15 08:45:19;;;;;;;2.10;1.93;;;9.20;99.90;;;;;;5085746;28;20448;-68
2021/12/15 08:47:46;;;;;;;0.87;0.87;;;9.20;99.90;;;;;;5077047;28;20842;-68
2021/12/15 08:50:18;;;;;;;0.93;0.83;;;9.20;99.90;;;;;;5085338;28;20457;-68
2021/12/15 08:52:45;;;;;;;1.90;1.57;;;9.20;99.90;;;;;;5073356;28;21124;-69
2021/12/15 08:55:12;;;;;;;4.97;1.50;;;9.20;99.90;;;;;;5071132;28;20463;-69
2021/12/15 08:57:46;;;;;;;1.40;1.20;;;9.20;99.90;;;;;;5079236;28;20484;-68
2021/12/15 09:00:14;;;;;;;2.40;1.70;;;9.30;99.90;;;;;;5080083;28;20448;-68
2021/12/15 09:02:41;;;;;;;0.73;0.73;;;9.30;99.90;;;;;;5080998;28;20475;-69
2021/12/15 09:05:09;;;;;;;1.20;0.97;;;9.30;99.90;;;;;;5077422;28;20528;-68
2021/12/15 09:07:37;;;;;;;0.93;0.93;;;9.30;99.90;;;;;;5069495;28;20449;-68
2021/12/15 09:10:04;;;;;;;1.83;1.10;;;9.30;99.90;;;;;;5091522;28;20478;-68
2021/12/15 09:12:31;;;;;;;1.00;1.00;;;9.40;99.90;;;;;;5089712;28;20470;-68
2021/12/15 09:14:58;;;;;;;1.37;1.07;;;9.40;99.90;;;;;;5085375;28;20449;-68
2021/12/15 09:17:25;;;;;;;0.67;0.50;;;9.50;99.90;;;;;;5083695;28;20499;-68
2021/12/15 09:19:52;;;;;;;1.10;1.00;;;9.50;99.90;;;;;;5085409;28;20447;-67
2021/12/15 09:22:18;;;;;;;0.90;0.70;;;9.60;99.90;;;;;;5085696;28;21135;-68
2021/12/15 09:24:46;;;;;;;0.93;0.80;;;9.60;99.90;;;;;;5090521;28;20896;-68
2021/12/15 09:27:13;;;;;;;4.93;1.10;;;9.70;99.90;;;;;;5085952;28;20454;-67
2021/12/15 09:29:40;;;;;;;0.90;0.80;;;9.70;99.90;;;;;;5084660;28;20459;-68
2021/12/15 09:32:07;;;;;;;0.50;0.43;;;9.70;99.90;;;;;;5087673;28;20456;-68
2021/12/15 09:34:36;;;;;;;0.60;0.60;;;9.80;99.90;;;;;;5082437;28;20468;-68
2021/12/15 09:37:04;;;;;;;1.43;1.33;;;9.80;99.90;;;;;;5079502;28;20529;-68
2021/12/15 09:39:32;;;;;;;0.90;0.80;;;9.90;99.90;;;;;;5077153;28;20453;-68
2021/12/15 09:42:00;;;;;;;1.17;1.07;;;9.90;99.90;;;;;;5073388;28;20962;-69
2021/12/15 09:44:28;;;;;;;1.73;1.13;;;9.90;99.90;;;;;;5066304;28;20485;-67
2021/12/15 10:03:50;;;;;;;1.10;1.00;;;10.20;99.90;;;;;;5072653;28;20462;-71
2021/12/15 10:06:33;;;;;;;3.03;1.40;;;10.20;99.90;;;;;;5080823;28;20547;-69
2021/12/15 10:11:53;;;;;;;1.13;1.00;;;10.20;99.90;;;;;;5078415;28;20586;-69
2021/12/15 10:20:06;;;;;;;2.37;1.50;;;10.40;99.90;;;;;;5060749;28;20484;-69
2021/12/15 10:22:38;;;;;;;1.03;1.03;;;10.40;99.90;;;;;;5090558;28;20504;-68
2021/12/15 10:25:09;;;;;;;1.93;1.50;;;10.50;99.90;;;;;;5085484;28;20453;-69
2021/12/15 10:27:41;;;;;;;3.67;3.00;;;10.50;99.90;;;;;;5078034;28;20457;-69
2021/12/15 10:30:18;;;;;;;1.80;1.70;;;10.50;99.90;;;;;;5082580;28;20443;-68
2021/12/15 10:32:47;;;;;;;1.80;1.30;;;10.50;99.90;;;;;;5094661;28;20523;-68
2021/12/15 10:35:18;;;;;;;1.80;1.30;;;10.50;99.90;;;;;;5071085;28;20454;-68
2021/12/15 10:38:16;;;;;;;1.33;1.23;;;10.60;99.90;;;;;;5077327;28;20492;-70
2021/12/15 10:40:45;;;;;;;3.73;1.40;;;10.60;99.90;;;;;;5066211;28;20586;-70
2021/12/15 10:43:13;;;;;;;2.10;1.70;;;10.60;99.90;;;;;;5080740;28;20471;-70
2021/12/15 10:45:44;;;;;;;1.67;1.17;;;10.60;99.90;;;;;;5077843;28;20841;-70
2021/12/15 10:48:21;;;;;;;2.27;1.80;;;10.60;99.90;;;;;;5065432;28;20420;-70
2021/12/15 10:50:48;;;;;;;1.67;1.10;;;10.60;99.90;;;;;;5076573;28;20516;-70
2021/12/15 10:53:15;;;;;;;1.20;1.10;;;10.70;99.90;;;;;;5080312;28;20465;-70
2021/12/15 10:55:42;;;;;;;2.30;1.50;;;10.70;99.90;;;;;;5073710;28;20466;-70
2021/12/15 10:58:32;;;;;;;1.40;1.30;;;10.60;99.90;;;;;;5070642;28;20488;-70
2021/12/15 11:01:01;;;;;;;1.67;1.57;;;10.70;99.90;;;;;;5080965;28;20450;-70
2021/12/15 11:03:34;;;;;;;2.40;2.10;;;10.70;99.90;;;;;;5073371;28;20521;-70
2021/12/15 11:06:17;;;;;;;3.13;1.40;;;10.70;99.90;;;;;;5075693;28;20999;-70
2021/12/15 11:08:44;;;;;;;1.10;0.90;;;10.70;99.90;;;;;;5070227;28;20456;-70
2021/12/15 11:11:26;;;;;;;2.03;1.77;;;10.80;99.90;;;;;;5069265;28;20450;-70
2021/12/15 11:13:53;;;;;;;1.30;1.10;;;10.80;99.90;;;;;;5073152;28;20549;-70
2021/12/15 11:16:30;;;;;;;0.80;0.80;;;10.80;99.90;;;;;;5083852;28;20439;-70
2021/12/15 11:18:58;;;;;;;1.37;1.27;;;10.80;99.90;;;;;;5082905;28;20541;-70
2021/12/15 11:21:32;;;;;;;3.07;1.20;;;10.80;99.90;;;;;;5080535;28;20991;-70
2021/12/15 11:24:01;;;;;;;0.90;0.90;;;10.80;99.90;;;;;;5082614;28;20546;-70
2021/12/15 11:26:27;;;;;;;1.00;0.77;;;10.70;99.90;;;;;;5069163;28;20431;-70
2021/12/15 11:28:54;;;;;;;0.90;0.70;;;10.70;99.90;;;;;;5083999;28;20562;-70
2021/12/15 11:31:23;;;;;;;1.27;0.83;;;10.70;99.90;;;;;;5076433;28;20469;-70
2021/12/15 11:33:53;;;;;;;1.07;0.97;;;10.70;99.90;;;;;;5088365;28;20584;-70
2021/12/15 11:36:25;;;;;;;1.00;0.90;;;10.70;99.90;;;;;;5084809;28;20454;-70
2021/12/15 11:38:55;;;;;;;1.77;1.23;;;10.70;99.90;;;;;;5073818;28;20480;-70
2021/12/15 11:41:24;;;;;;;1.57;1.00;;;10.80;99.90;;;;;;5070129;28;20458;-69
2021/12/15 11:43:54;;;;;;;1.00;0.83;;;10.80;99.90;;;;;;5073143;28;20562;-69
2021/12/15 11:46:24;;;;;;;1.07;0.97;;;10.80;99.90;;;;;;5071133;28;20538;-69
2021/12/15 11:48:56;;;;;;;1.03;0.90;;;10.80;99.90;;;;;;5072036;28;20725;-69
2021/12/15 11:51:44;;;;;;;1.40;1.20;;;10.80;99.90;;;;;;5085173;28;20445;-69
2021/12/15 11:54:21;;;;;;;1.60;1.03;;;10.80;99.90;;;;;;5076742;28;20482;-69
2021/12/15 11:56:50;;;;;;;4.30;0.83;;;10.80;99.90;;;;;;5078247;28;20508;-69
2021/12/15 11:59:24;;;;;;;1.53;1.30;;;10.80;99.90;;;;;;5075560;28;20488;-69
2021/12/15 12:01:58;;;;;;;1.10;0.93;;;10.80;99.90;;;;;;5076516;28;20466;-69
2021/12/15 12:04:33;;;;;;;1.20;1.03;;;10.80;99.90;;;;;;5080900;28;20468;-69
2021/12/15 12:07:23;;;;;;;1.70;1.17;;;10.80;99.90;;;;;;5076142;28;20441;-69
2021/12/15 12:09:53;;;;;;;2.77;1.37;;;10.80;99.90;;;;;;5080759;28;20445;-69
2021/12/15 12:12:23;;;;;;;1.73;1.23;;;10.80;99.90;;;;;;5085907;28;20452;-69
2021/12/15 12:14:50;;;;;;;1.20;1.10;;;10.80;99.90;;;;;;5101618;22;20576;-67
2021/12/15 12:17:20;;;;;;;1.50;1.40;;;10.80;99.90;;;;;;5090328;28;20457;-68
2021/12/15 12:19:53;;;;;;;1.40;1.30;;;10.80;99.90;;;;;;5091571;28;20484;-67
2021/12/15 12:22:21;;;;;;;1.00;0.80;;;10.80;99.90;;;;;;5092252;28;20617;-68
2021/12/15 12:24:51;;;;;;;2.20;1.53;;;10.80;99.90;;;;;;5092564;28;20847;-68
2021/12/15 12:27:20;;;;;;;1.13;0.90;;;10.80;99.90;;;;;;5091725;28;20455;-67
2021/12/15 12:29:47;;;;;;;0.80;0.80;;;10.80;99.90;;;;;;5090824;28;20450;-68
2021/12/15 12:32:14;;;;;;;1.70;1.60;;;10.80;99.90;;;;;;5092173;28;20460;-68
2021/12/15 12:34:42;;;;;;;1.47;1.37;;;10.80;99.90;;;;;;5091231;28;20478;-68
2021/12/15 12:37:14;;;;;;;1.63;1.40;;;10.80;99.90;;;;;;5092401;28;20453;-68
2021/12/15 12:39:42;;;;;;;1.53;1.43;;;10.80;99.90;;;;;;5091146;28;20491;-68
2021/12/15 12:42:09;;;;;;;1.53;1.27;;;10.80;99.90;;;;;;5092221;28;21808;-68
2021/12/15 12:44:39;;;;;;;1.73;1.63;;;10.80;99.90;;;;;;5089870;28;20598;-67
2021/12/15 12:47:20;;;;;;;2.67;1.87;;;10.80;99.90;;;;;;5092579;28;20440;-67
2021/12/15 12:50:13;;;;;;;1.73;1.63;;;10.80;99.90;;;;;;5092156;28;20537;-67
2021/12/15 13:01:19;;;;;;;1.63;1.50;;;10.80;99.90;;;;;;5091389;28;20434;-67
2021/12/15 13:03:50;;;;;;;2.33;1.53;;;10.80;99.90;;;;;;5091074;28;20485;-67
2021/12/15 13:06:19;;;;;;;2.63;2.30;;;10.80;99.90;;;;;;5084915;28;20973;-67
2021/12/15 13:08:50;;;;;;;1.87;1.73;;;10.80;99.90;;;;;;5090772;28;21015;-67
2021/12/15 13:11:34;;;;;;;2.27;2.07;;;10.80;99.90;;;;;;5091456;28;20802;-67
2021/12/15 13:14:05;;;;;;;2.00;1.80;;;10.80;99.90;;;;;;5090402;28;20546;-69
2021/12/15 13:16:45;;;;;;;2.00;1.90;;;10.80;99.90;;;;;;5091207;28;20488;-67
2021/12/15 13:19:19;;;;;;;2.57;2.27;;;10.80;99.90;;;;;;5095618;28;20510;-67
2021/12/15 13:21:57;;;;;;;1.90;1.80;;;10.80;99.90;;;;;;5110422;28;20449;-66
2021/12/15 13:30:38;;;;;;;2.20;2.10;;;10.80;99.90;;;;;;5104582;28;20507;-67
2021/12/15 13:33:12;;;;;;;2.37;2.17;;;10.70;99.90;;;;;;5091545;28;20464;-67
2021/12/15 13:35:43;;;;;;;2.57;2.37;;;10.80;99.90;;;;;;5077080;28;20708;-67
2021/12/15 13:38:10;;;;;;;2.57;2.37;;;10.80;99.90;;;;;;5088976;28;20464;-66
2021/12/15 13:41:20;;;;;;;2.43;1.90;;;10.80;99.90;;;;;;5092052;28;20449;-67
2021/12/15 13:43:54;;;;;;;3.73;3.27;;;10.80;99.90;;;;;;5082278;28;20568;-67
2021/12/15 13:46:34;;;;;;;3.43;2.37;;;10.80;99.90;;;;;;5090481;28;20448;-68
2021/12/15 13:49:09;;;;;;;2.30;2.10;;;10.70;99.90;;;;;;5088707;28;20498;-69
2021/12/15 13:52:04;;;;;;;11.03;2.93;;;10.80;99.90;;;;;;5091187;28;20532;-66
2021/12/15 13:55:00;;;;;;;2.80;2.37;;;10.70;99.90;;;;;;5089865;28;20480;-67
2021/12/15 13:57:32;;;;;;;2.47;1.90;;;10.70;99.90;;;;;;5086578;28;20656;-68
2021/12/15 14:00:07;;;;;;;3.23;2.43;;;10.70;99.90;;;;;;5088543;28;21033;-67
2021/12/15 14:02:35;;;;;;;3.50;2.43;;;10.70;99.90;;;;;;5088189;28;21024;-66
2021/12/15 14:05:06;;;;;;;2.53;2.10;;;10.70;99.90;;;;;;5097144;28;20488;-67
2021/12/15 14:07:35;;;;;;;2.93;2.40;;;10.70;99.90;;;;;;5102693;28;20456;-66
2021/12/15 14:10:25;;;;;;;3.73;3.40;;;10.70;99.90;;;;;;5097051;28;20501;-67
2021/12/15 14:12:57;;;;;;;2.87;2.60;;;10.70;99.90;;;;;;5088556;28;20645;-67
2021/12/15 14:15:45;;;;;;;3.57;2.17;;;10.70;99.90;;;;;;5091622;28;20897;-67
2021/12/15 14:18:14;;;;;;;3.10;2.40;;;10.60;99.90;;;;;;5090526;28;20454;-66
2021/12/15 14:20:44;;;;;;;3.03;2.73;;;10.60;99.90;;;;;;5089938;28;20919;-68
2021/12/15 14:23:15;;;;;;;3.70;2.40;;;10.60;99.90;;;;;;5090239;28;20475;-66